メインページ
METAR-TAF:

METAR-TAF

空港 :

函館空港

函館, 日本

緯度: 41-46N, 経度: 140-49E, 海抜: 33m

現時点の気象観測

当レポートは22分前の07:00(UTC)に作成
変向風 2kt
気温 23°C
湿度 53%
気圧 1012 hPa
視程10km以上
高度4500ftの雲はほとんどない
千切れ雲あり

METAR: RJCH 200700Z VRB02KT 9999 FEW045 BKN/// 23/13 Q1012

時間: 16:22 (07:22 UTC)

予報

当レポートは2時間9分前の05:13(UTC)に作成
予報は20日の 06時(UTC)から 21日の 12時(UTC)まで有効
南/南西の風 6kt
視程10km以上
高度2000ftの雲はほとんどない
20日の 06時(UTC)から 20日の 08時(UTC)まで徐々に
東/北東の風 5kt
21日の 06時(UTC)から 21日の 12時(UTC)まで一時的に
視程: 4000m
高度600ftの千切れ雲あり
高度2500ftの千切れ雲あり
高度2500ftの雲はほとんどない, 積乱雲.
弱いにわか雨, 靄

TAF: RJCH 200513Z 2006/2112 21006KT 9999 FEW020 BECMG 2006/2008 06005KT TEMPO 2106/2112 4000 -SHRA BR BKN006 BKN025 FEW025CB

4,000以上の空港の気象観測と天気予報(METAR報とTAF報)

利用可能な観測所は地図上に黄色い丸と赤い丸で示す。

丸の上にカーソルを重ねると観測所名を参照できる。

次にクリックすると気象観測と天気予報を参照できる。

マップの切り替え:黒色「×」印の緑ボタンをクリックして拡大、「-」印の緑ボタンをクリックして縮小、緑色の三角印をクリックして隣りの地図に切り替え


METAR-TAF: